sensor_id;sensor_type;location;lat;lon;timestamp;P1;durP1;ratioP1;P2;durP2;ratioP2
50417;SDS011;36346;48.280;14.292;2024-01-15T00:02:26;44.83;;;42.80;;
50417;SDS011;36346;48.280;14.292;2024-01-15T00:04:54;44.48;;;42.76;;
50417;SDS011;36346;48.280;14.292;2024-01-15T00:07:22;44.80;;;43.16;;
50417;SDS011;36346;48.280;14.292;2024-01-15T00:09:50;44.95;;;42.96;;
50417;SDS011;36346;48.280;14.292;2024-01-15T00:12:19;45.04;;;42.95;;
50417;SDS011;36346;48.280;14.292;2024-01-15T00:14:47;44.56;;;42.75;;
50417;SDS011;36346;48.280;14.292;2024-01-15T00:17:15;45.56;;;43.39;;
50417;SDS011;36346;48.280;14.292;2024-01-15T00:19:43;46.05;;;43.87;;
50417;SDS011;36346;48.280;14.292;2024-01-15T00:22:11;44.37;;;42.41;;
50417;SDS011;36346;48.280;14.292;2024-01-15T00:24:39;45.78;;;43.48;;
50417;SDS011;36346;48.280;14.292;2024-01-15T00:27:08;45.53;;;43.32;;
50417;SDS011;36346;48.280;14.292;2024-01-15T00:29:36;45.47;;;43.28;;
50417;SDS011;36346;48.280;14.292;2024-01-15T00:32:04;44.31;;;42.59;;
50417;SDS011;36346;48.280;14.292;2024-01-15T00:34:32;44.85;;;42.75;;
50417;SDS011;36346;48.280;14.292;2024-01-15T00:37:00;45.56;;;43.20;;
50417;SDS011;36346;48.280;14.292;2024-01-15T00:39:28;46.74;;;44.49;;
50417;SDS011;36346;48.280;14.292;2024-01-15T00:41:56;46.14;;;43.67;;
50417;SDS011;36346;48.280;14.292;2024-01-15T00:44:24;46.16;;;44.01;;
50417;SDS011;36346;48.280;14.292;2024-01-15T00:46:52;46.54;;;44.07;;
50417;SDS011;36346;48.280;14.292;2024-01-15T00:49:21;44.58;;;42.68;;
50417;SDS011;36346;48.280;14.292;2024-01-15T00:51:49;45.61;;;43.20;;
50417;SDS011;36346;48.280;14.292;2024-01-15T00:54:17;43.83;;;42.02;;
50417;SDS011;36346;48.280;14.292;2024-01-15T00:56:46;43.99;;;42.21;;
50417;SDS011;36346;48.280;14.292;2024-01-15T00:59:14;44.33;;;42.41;;
50417;SDS011;36346;48.280;14.292;2024-01-15T01:01:45;43.01;;;41.26;;
50417;SDS011;36346;48.280;14.292;2024-01-15T01:04:13;43.01;;;41.10;;
50417;SDS011;36346;48.280;14.292;2024-01-15T01:06:42;43.97;;;41.78;;
50417;SDS011;36346;48.280;14.292;2024-01-15T01:09:10;43.03;;;41.10;;
50417;SDS011;36346;48.280;14.292;2024-01-15T01:11:38;43.43;;;41.63;;
50417;SDS011;36346;48.280;14.292;2024-01-15T01:14:06;42.43;;;40.68;;
50417;SDS011;36346;48.280;14.292;2024-01-15T01:16:34;42.11;;;40.44;;
50417;SDS011;36346;48.280;14.292;2024-01-15T01:19:07;42.14;;;40.32;;
50417;SDS011;36346;48.280;14.292;2024-01-15T01:21:36;43.34;;;41.19;;
50417;SDS011;36346;48.280;14.292;2024-01-15T01:24:04;43.83;;;41.84;;
50417;SDS011;36346;48.280;14.292;2024-01-15T01:26:32;42.53;;;40.68;;
50417;SDS011;36346;48.280;14.292;2024-01-15T01:29:00;42.81;;;41.00;;
50417;SDS011;36346;48.280;14.292;2024-01-15T01:31:28;44.40;;;42.15;;
50417;SDS011;36346;48.280;14.292;2024-01-15T01:33:57;44.02;;;41.95;;
50417;SDS011;36346;48.280;14.292;2024-01-15T01:36:25;44.06;;;41.84;;
50417;SDS011;36346;48.280;14.292;2024-01-15T01:38:53;43.54;;;41.62;;
50417;SDS011;36346;48.280;14.292;2024-01-15T01:41:21;43.32;;;41.47;;
50417;SDS011;36346;48.280;14.292;2024-01-15T01:43:49;44.39;;;42.20;;
50417;SDS011;36346;48.280;14.292;2024-01-15T01:46:17;44.33;;;41.99;;
50417;SDS011;36346;48.280;14.292;2024-01-15T01:48:45;44.52;;;42.51;;
50417;SDS011;36346;48.280;14.292;2024-01-15T01:51:13;42.70;;;41.12;;
50417;SDS011;36346;48.280;14.292;2024-01-15T01:53:43;43.62;;;41.79;;
50417;SDS011;36346;48.280;14.292;2024-01-15T01:56:13;44.32;;;41.77;;
50417;SDS011;36346;48.280;14.292;2024-01-15T01:58:42;43.76;;;41.69;;
50417;SDS011;36346;48.280;14.292;2024-01-15T02:01:11;44.68;;;42.34;;
50417;SDS011;36346;48.280;14.292;2024-01-15T02:03:40;43.48;;;41.80;;
50417;SDS011;36346;48.280;14.292;2024-01-15T02:06:09;42.82;;;41.28;;
50417;SDS011;36346;48.280;14.292;2024-01-15T02:08:37;42.24;;;40.35;;
50417;SDS011;36346;48.280;14.292;2024-01-15T02:11:06;42.60;;;40.99;;
50417;SDS011;36346;48.280;14.292;2024-01-15T02:13:34;43.08;;;41.08;;
50417;SDS011;36346;48.280;14.292;2024-01-15T02:16:02;43.44;;;41.34;;
50417;SDS011;36346;48.280;14.292;2024-01-15T02:18:39;42.44;;;40.68;;
50417;SDS011;36346;48.280;14.292;2024-01-15T02:21:08;42.44;;;40.57;;
50417;SDS011;36346;48.280;14.292;2024-01-15T02:23:37;43.10;;;41.01;;
50417;SDS011;36346;48.280;14.292;2024-01-15T02:26:06;43.24;;;40.89;;
50417;SDS011;36346;48.280;14.292;2024-01-15T02:28:35;42.07;;;40.20;;
50417;SDS011;36346;48.280;14.292;2024-01-15T02:31:04;41.85;;;40.32;;
50417;SDS011;36346;48.280;14.292;2024-01-15T02:33:32;41.86;;;40.16;;
50417;SDS011;36346;48.280;14.292;2024-01-15T02:36:00;43.25;;;40.93;;
50417;SDS011;36346;48.280;14.292;2024-01-15T02:38:28;42.79;;;40.74;;
50417;SDS011;36346;48.280;14.292;2024-01-15T02:40:56;40.92;;;39.42;;
50417;SDS011;36346;48.280;14.292;2024-01-15T02:43:24;42.72;;;40.93;;
50417;SDS011;36346;48.280;14.292;2024-01-15T02:45:52;43.68;;;41.14;;
50417;SDS011;36346;48.280;14.292;2024-01-15T02:48:21;42.40;;;40.32;;
50417;SDS011;36346;48.280;14.292;2024-01-15T02:50:49;42.27;;;40.31;;
50417;SDS011;36346;48.280;14.292;2024-01-15T02:53:17;42.42;;;40.44;;
50417;SDS011;36346;48.280;14.292;2024-01-15T02:55:45;41.60;;;39.82;;
50417;SDS011;36346;48.280;14.292;2024-01-15T02:58:14;42.28;;;39.87;;
50417;SDS011;36346;48.280;14.292;2024-01-15T03:00:42;42.43;;;40.11;;
50417;SDS011;36346;48.280;14.292;2024-01-15T03:03:11;42.34;;;40.39;;
50417;SDS011;36346;48.280;14.292;2024-01-15T03:05:40;42.24;;;40.29;;
50417;SDS011;36346;48.280;14.292;2024-01-15T03:08:08;42.61;;;40.50;;
50417;SDS011;36346;48.280;14.292;2024-01-15T03:10:36;42.20;;;40.13;;
50417;SDS011;36346;48.280;14.292;2024-01-15T03:13:04;42.94;;;40.79;;
50417;SDS011;36346;48.280;14.292;2024-01-15T03:15:32;41.86;;;39.51;;
50417;SDS011;36346;48.280;14.292;2024-01-15T03:18:00;40.49;;;38.63;;
50417;SDS011;36346;48.280;14.292;2024-01-15T03:20:28;41.20;;;39.28;;
50417;SDS011;36346;48.280;14.292;2024-01-15T03:22:56;39.18;;;37.83;;
50417;SDS011;36346;48.280;14.292;2024-01-15T03:25:25;40.31;;;38.49;;
50417;SDS011;36346;48.280;14.292;2024-01-15T03:27:53;40.01;;;38.10;;
50417;SDS011;36346;48.280;14.292;2024-01-15T03:30:21;39.66;;;37.98;;
50417;SDS011;36346;48.280;14.292;2024-01-15T03:32:49;39.32;;;37.81;;
50417;SDS011;36346;48.280;14.292;2024-01-15T03:35:18;39.58;;;37.67;;
50417;SDS011;36346;48.280;14.292;2024-01-15T03:37:46;38.88;;;37.01;;
50417;SDS011;36346;48.280;14.292;2024-01-15T03:40:14;37.85;;;35.89;;
50417;SDS011;36346;48.280;14.292;2024-01-15T03:42:46;39.05;;;37.05;;
50417;SDS011;36346;48.280;14.292;2024-01-15T03:45:15;37.84;;;36.25;;
50417;SDS011;36346;48.280;14.292;2024-01-15T03:47:43;37.37;;;35.57;;
50417;SDS011;36346;48.280;14.292;2024-01-15T03:50:11;35.67;;;34.13;;
50417;SDS011;36346;48.280;14.292;2024-01-15T03:52:39;36.20;;;34.77;;
50417;SDS011;36346;48.280;14.292;2024-01-15T03:55:07;36.96;;;35.28;;
50417;SDS011;36346;48.280;14.292;2024-01-15T03:57:35;35.75;;;34.64;;
50417;SDS011;36346;48.280;14.292;2024-01-15T04:00:05;35.89;;;34.53;;
50417;SDS011;36346;48.280;14.292;2024-01-15T04:02:33;34.81;;;33.52;;
50417;SDS011;36346;48.280;14.292;2024-01-15T04:05:01;35.77;;;34.51;;
50417;SDS011;36346;48.280;14.292;2024-01-15T04:07:29;35.54;;;34.14;;
50417;SDS011;36346;48.280;14.292;2024-01-15T04:09:57;39.65;;;38.03;;
50417;SDS011;36346;48.280;14.292;2024-01-15T04:12:26;36.30;;;35.27;;
50417;SDS011;36346;48.280;14.292;2024-01-15T04:14:54;34.34;;;33.28;;
50417;SDS011;36346;48.280;14.292;2024-01-15T04:17:21;35.79;;;34.71;;
50417;SDS011;36346;48.280;14.292;2024-01-15T04:19:50;63.61;;;60.45;;
50417;SDS011;36346;48.280;14.292;2024-01-15T04:22:18;42.44;;;40.83;;
50417;SDS011;36346;48.280;14.292;2024-01-15T04:24:46;43.02;;;41.56;;
50417;SDS011;36346;48.280;14.292;2024-01-15T04:27:14;38.33;;;36.76;;
50417;SDS011;36346;48.280;14.292;2024-01-15T04:29:42;37.42;;;36.01;;
50417;SDS011;36346;48.280;14.292;2024-01-15T04:32:12;36.78;;;35.25;;
50417;SDS011;36346;48.280;14.292;2024-01-15T04:34:40;36.76;;;34.99;;
50417;SDS011;36346;48.280;14.292;2024-01-15T04:37:08;35.34;;;34.04;;
50417;SDS011;36346;48.280;14.292;2024-01-15T04:39:36;36.95;;;35.18;;
50417;SDS011;36346;48.280;14.292;2024-01-15T04:42:05;36.13;;;34.67;;
50417;SDS011;36346;48.280;14.292;2024-01-15T04:44:33;34.76;;;33.13;;
50417;SDS011;36346;48.280;14.292;2024-01-15T04:47:01;34.54;;;33.02;;
50417;SDS011;36346;48.280;14.292;2024-01-15T04:49:29;34.05;;;33.01;;
50417;SDS011;36346;48.280;14.292;2024-01-15T04:51:57;31.97;;;30.98;;
50417;SDS011;36346;48.280;14.292;2024-01-15T04:54:25;32.94;;;32.03;;
50417;SDS011;36346;48.280;14.292;2024-01-15T04:56:53;33.13;;;32.11;;
50417;SDS011;36346;48.280;14.292;2024-01-15T04:59:22;32.73;;;31.83;;
50417;SDS011;36346;48.280;14.292;2024-01-15T05:01:50;32.57;;;31.49;;
50417;SDS011;36346;48.280;14.292;2024-01-15T05:04:18;32.69;;;31.77;;
50417;SDS011;36346;48.280;14.292;2024-01-15T05:06:46;32.84;;;31.98;;
50417;SDS011;36346;48.280;14.292;2024-01-15T05:09:14;32.09;;;31.23;;
50417;SDS011;36346;48.280;14.292;2024-01-15T05:11:42;31.50;;;30.80;;
50417;SDS011;36346;48.280;14.292;2024-01-15T05:14:11;32.18;;;31.34;;
50417;SDS011;36346;48.280;14.292;2024-01-15T05:16:39;31.82;;;31.05;;
50417;SDS011;36346;48.280;14.292;2024-01-15T05:19:08;32.92;;;31.99;;
50417;SDS011;36346;48.280;14.292;2024-01-15T05:21:36;31.53;;;30.60;;
50417;SDS011;36346;48.280;14.292;2024-01-15T05:24:05;31.93;;;31.09;;
50417;SDS011;36346;48.280;14.292;2024-01-15T05:26:33;32.04;;;31.30;;
50417;SDS011;36346;48.280;14.292;2024-01-15T05:29:01;32.70;;;31.67;;
50417;SDS011;36346;48.280;14.292;2024-01-15T05:31:29;31.60;;;30.86;;
50417;SDS011;36346;48.280;14.292;2024-01-15T05:33:57;32.68;;;31.86;;
50417;SDS011;36346;48.280;14.292;2024-01-15T05:36:25;33.26;;;32.35;;
50417;SDS011;36346;48.280;14.292;2024-01-15T05:38:54;32.89;;;31.62;;
50417;SDS011;36346;48.280;14.292;2024-01-15T05:41:22;32.16;;;31.25;;
50417;SDS011;36346;48.280;14.292;2024-01-15T05:43:50;32.39;;;31.71;;
50417;SDS011;36346;48.280;14.292;2024-01-15T05:46:18;32.54;;;31.82;;
50417;SDS011;36346;48.280;14.292;2024-01-15T05:48:46;32.91;;;32.03;;
50417;SDS011;36346;48.280;14.292;2024-01-15T05:51:15;31.30;;;30.57;;
50417;SDS011;36346;48.280;14.292;2024-01-15T05:53:43;31.76;;;31.19;;
50417;SDS011;36346;48.280;14.292;2024-01-15T05:56:12;31.91;;;31.21;;
50417;SDS011;36346;48.280;14.292;2024-01-15T05:58:40;30.83;;;30.07;;
50417;SDS011;36346;48.280;14.292;2024-01-15T06:01:08;31.45;;;30.77;;
50417;SDS011;36346;48.280;14.292;2024-01-15T06:03:36;30.54;;;29.90;;
50417;SDS011;36346;48.280;14.292;2024-01-15T06:06:04;30.77;;;30.12;;
50417;SDS011;36346;48.280;14.292;2024-01-15T06:08:33;30.36;;;29.55;;
50417;SDS011;36346;48.280;14.292;2024-01-15T06:11:01;31.86;;;30.94;;
50417;SDS011;36346;48.280;14.292;2024-01-15T06:13:29;31.49;;;30.77;;
50417;SDS011;36346;48.280;14.292;2024-01-15T06:15:57;30.82;;;30.04;;
50417;SDS011;36346;48.280;14.292;2024-01-15T06:18:25;31.43;;;30.72;;
50417;SDS011;36346;48.280;14.292;2024-01-15T06:20:54;30.78;;;30.13;;
50417;SDS011;36346;48.280;14.292;2024-01-15T06:23:22;29.84;;;29.08;;
50417;SDS011;36346;48.280;14.292;2024-01-15T06:25:50;31.69;;;30.82;;
50417;SDS011;36346;48.280;14.292;2024-01-15T06:28:18;31.58;;;30.66;;
50417;SDS011;36346;48.280;14.292;2024-01-15T06:30:46;31.03;;;30.20;;
50417;SDS011;36346;48.280;14.292;2024-01-15T06:33:14;30.03;;;29.24;;
50417;SDS011;36346;48.280;14.292;2024-01-15T06:35:42;29.81;;;29.10;;
50417;SDS011;36346;48.280;14.292;2024-01-15T06:38:10;27.85;;;27.24;;
50417;SDS011;36346;48.280;14.292;2024-01-15T06:40:39;26.58;;;26.06;;
50417;SDS011;36346;48.280;14.292;2024-01-15T06:43:13;25.72;;;25.17;;
50417;SDS011;36346;48.280;14.292;2024-01-15T06:45:41;25.68;;;25.25;;
50417;SDS011;36346;48.280;14.292;2024-01-15T06:48:09;25.05;;;24.40;;
50417;SDS011;36346;48.280;14.292;2024-01-15T06:50:40;25.28;;;24.68;;
50417;SDS011;36346;48.280;14.292;2024-01-15T06:53:08;25.10;;;24.55;;
50417;SDS011;36346;48.280;14.292;2024-01-15T06:55:36;24.06;;;23.51;;
50417;SDS011;36346;48.280;14.292;2024-01-15T06:58:05;23.92;;;23.46;;
50417;SDS011;36346;48.280;14.292;2024-01-15T07:00:33;23.77;;;23.08;;
50417;SDS011;36346;48.280;14.292;2024-01-15T07:03:01;24.16;;;23.28;;
50417;SDS011;36346;48.280;14.292;2024-01-15T07:05:30;31.90;;;31.09;;
50417;SDS011;36346;48.280;14.292;2024-01-15T07:07:58;29.66;;;29.03;;
50417;SDS011;36346;48.280;14.292;2024-01-15T07:10:26;24.07;;;23.63;;
50417;SDS011;36346;48.280;14.292;2024-01-15T07:12:54;22.36;;;21.88;;
50417;SDS011;36346;48.280;14.292;2024-01-15T07:15:23;22.56;;;22.17;;
50417;SDS011;36346;48.280;14.292;2024-01-15T07:17:50;22.64;;;22.08;;
50417;SDS011;36346;48.280;14.292;2024-01-15T07:20:19;23.04;;;22.44;;
50417;SDS011;36346;48.280;14.292;2024-01-15T07:22:47;22.54;;;21.94;;
50417;SDS011;36346;48.280;14.292;2024-01-15T07:25:15;22.76;;;22.26;;
50417;SDS011;36346;48.280;14.292;2024-01-15T07:27:43;22.57;;;22.03;;
50417;SDS011;36346;48.280;14.292;2024-01-15T07:30:12;22.66;;;22.22;;
50417;SDS011;36346;48.280;14.292;2024-01-15T07:32:41;22.28;;;21.91;;
50417;SDS011;36346;48.280;14.292;2024-01-15T07:35:10;22.24;;;21.57;;
50417;SDS011;36346;48.280;14.292;2024-01-15T07:37:38;22.19;;;21.52;;
50417;SDS011;36346;48.280;14.292;2024-01-15T07:40:06;21.67;;;21.18;;
50417;SDS011;36346;48.280;14.292;2024-01-15T07:42:36;21.60;;;21.15;;
50417;SDS011;36346;48.280;14.292;2024-01-15T07:45:05;21.66;;;21.17;;
50417;SDS011;36346;48.280;14.292;2024-01-15T07:47:33;21.20;;;20.97;;
50417;SDS011;36346;48.280;14.292;2024-01-15T07:50:01;21.54;;;21.17;;
50417;SDS011;36346;48.280;14.292;2024-01-15T07:52:33;21.17;;;20.71;;
50417;SDS011;36346;48.280;14.292;2024-01-15T07:55:01;21.11;;;20.57;;
50417;SDS011;36346;48.280;14.292;2024-01-15T07:57:31;21.31;;;20.74;;
50417;SDS011;36346;48.280;14.292;2024-01-15T07:59:59;20.65;;;20.25;;
50417;SDS011;36346;48.280;14.292;2024-01-15T08:02:31;20.77;;;20.28;;
50417;SDS011;36346;48.280;14.292;2024-01-15T08:05:04;21.47;;;20.92;;
50417;SDS011;36346;48.280;14.292;2024-01-15T08:07:33;20.40;;;19.93;;
50417;SDS011;36346;48.280;14.292;2024-01-15T08:10:01;20.61;;;20.07;;
50417;SDS011;36346;48.280;14.292;2024-01-15T08:12:29;19.90;;;19.30;;
50417;SDS011;36346;48.280;14.292;2024-01-15T08:14:58;19.78;;;19.39;;
50417;SDS011;36346;48.280;14.292;2024-01-15T08:17:26;20.02;;;19.65;;
50417;SDS011;36346;48.280;14.292;2024-01-15T08:19:57;20.16;;;19.68;;
50417;SDS011;36346;48.280;14.292;2024-01-15T08:22:27;19.89;;;19.45;;
50417;SDS011;36346;48.280;14.292;2024-01-15T08:24:59;21.55;;;21.01;;
50417;SDS011;36346;48.280;14.292;2024-01-15T08:27:27;19.82;;;19.42;;
50417;SDS011;36346;48.280;14.292;2024-01-15T08:29:56;19.90;;;19.33;;
50417;SDS011;36346;48.280;14.292;2024-01-15T08:32:24;18.77;;;18.41;;
50417;SDS011;36346;48.280;14.292;2024-01-15T08:34:53;18.92;;;18.59;;
50417;SDS011;36346;48.280;14.292;2024-01-15T08:37:21;18.48;;;18.10;;
50417;SDS011;36346;48.280;14.292;2024-01-15T08:39:49;19.15;;;18.72;;
50417;SDS011;36346;48.280;14.292;2024-01-15T08:42:19;19.75;;;19.36;;
50417;SDS011;36346;48.280;14.292;2024-01-15T08:44:47;19.78;;;19.30;;
50417;SDS011;36346;48.280;14.292;2024-01-15T08:47:15;19.61;;;19.19;;
50417;SDS011;36346;48.280;14.292;2024-01-15T08:49:43;19.83;;;19.50;;
50417;SDS011;36346;48.280;14.292;2024-01-15T08:52:13;20.14;;;19.64;;
50417;SDS011;36346;48.280;14.292;2024-01-15T08:54:41;20.71;;;20.22;;
50417;SDS011;36346;48.280;14.292;2024-01-15T08:57:10;21.30;;;20.76;;
50417;SDS011;36346;48.280;14.292;2024-01-15T08:59:39;20.58;;;20.20;;
50417;SDS011;36346;48.280;14.292;2024-01-15T09:02:09;21.60;;;21.10;;
50417;SDS011;36346;48.280;14.292;2024-01-15T09:04:37;21.90;;;21.51;;
50417;SDS011;36346;48.280;14.292;2024-01-15T09:07:05;22.89;;;22.37;;
50417;SDS011;36346;48.280;14.292;2024-01-15T09:09:33;22.37;;;21.95;;
50417;SDS011;36346;48.280;14.292;2024-01-15T09:12:04;22.89;;;22.52;;
50417;SDS011;36346;48.280;14.292;2024-01-15T09:14:33;22.70;;;22.34;;
50417;SDS011;36346;48.280;14.292;2024-01-15T09:17:04;21.99;;;21.69;;
50417;SDS011;36346;48.280;14.292;2024-01-15T09:19:33;23.19;;;22.78;;
50417;SDS011;36346;48.280;14.292;2024-01-15T09:22:02;23.34;;;23.01;;
50417;SDS011;36346;48.280;14.292;2024-01-15T09:24:30;23.30;;;22.88;;
50417;SDS011;36346;48.280;14.292;2024-01-15T09:26:58;23.78;;;23.26;;
50417;SDS011;36346;48.280;14.292;2024-01-15T09:29:26;22.84;;;22.48;;
50417;SDS011;36346;48.280;14.292;2024-01-15T09:31:54;23.06;;;22.67;;
50417;SDS011;36346;48.280;14.292;2024-01-15T09:34:23;23.09;;;22.75;;
50417;SDS011;36346;48.280;14.292;2024-01-15T09:36:51;22.32;;;21.91;;
50417;SDS011;36346;48.280;14.292;2024-01-15T09:39:20;21.52;;;21.24;;
50417;SDS011;36346;48.280;14.292;2024-01-15T09:41:49;21.74;;;21.46;;
50417;SDS011;36346;48.280;14.292;2024-01-15T09:44:17;21.84;;;21.41;;
50417;SDS011;36346;48.280;14.292;2024-01-15T09:46:47;22.38;;;21.77;;
50417;SDS011;36346;48.280;14.292;2024-01-15T09:49:17;22.00;;;21.56;;
50417;SDS011;36346;48.280;14.292;2024-01-15T09:51:46;21.93;;;21.51;;
50417;SDS011;36346;48.280;14.292;2024-01-15T09:54:29;21.41;;;21.06;;
50417;SDS011;36346;48.280;14.292;2024-01-15T09:56:58;21.36;;;20.99;;
50417;SDS011;36346;48.280;14.292;2024-01-15T09:59:28;21.50;;;21.16;;
50417;SDS011;36346;48.280;14.292;2024-01-15T10:01:57;21.03;;;20.78;;
50417;SDS011;36346;48.280;14.292;2024-01-15T10:04:26;20.73;;;20.37;;
50417;SDS011;36346;48.280;14.292;2024-01-15T10:06:55;19.93;;;19.70;;
50417;SDS011;36346;48.280;14.292;2024-01-15T10:09:25;20.57;;;20.25;;
50417;SDS011;36346;48.280;14.292;2024-01-15T10:11:53;20.83;;;20.41;;
50417;SDS011;36346;48.280;14.292;2024-01-15T10:14:21;20.07;;;19.81;;
50417;SDS011;36346;48.280;14.292;2024-01-15T10:16:49;20.69;;;20.44;;
50417;SDS011;36346;48.280;14.292;2024-01-15T10:19:17;21.22;;;20.97;;
50417;SDS011;36346;48.280;14.292;2024-01-15T10:21:45;20.34;;;19.95;;
50417;SDS011;36346;48.280;14.292;2024-01-15T10:24:14;20.97;;;20.73;;
50417;SDS011;36346;48.280;14.292;2024-01-15T10:26:43;21.04;;;20.74;;
50417;SDS011;36346;48.280;14.292;2024-01-15T10:29:12;20.51;;;20.18;;
50417;SDS011;36346;48.280;14.292;2024-01-15T10:31:42;19.79;;;19.43;;
50417;SDS011;36346;48.280;14.292;2024-01-15T10:34:12;19.31;;;19.04;;
50417;SDS011;36346;48.280;14.292;2024-01-15T10:36:41;19.31;;;19.09;;
50417;SDS011;36346;48.280;14.292;2024-01-15T10:39:09;19.27;;;19.01;;
50417;SDS011;36346;48.280;14.292;2024-01-15T10:41:37;18.52;;;18.30;;
50417;SDS011;36346;48.280;14.292;2024-01-15T10:44:05;17.57;;;17.47;;
50417;SDS011;36346;48.280;14.292;2024-01-15T10:46:33;17.95;;;17.74;;
50417;SDS011;36346;48.280;14.292;2024-01-15T10:49:02;17.51;;;17.12;;
50417;SDS011;36346;48.280;14.292;2024-01-15T10:51:32;17.17;;;17.02;;
50417;SDS011;36346;48.280;14.292;2024-01-15T10:54:00;17.74;;;17.51;;
50417;SDS011;36346;48.280;14.292;2024-01-15T10:56:29;17.61;;;17.36;;
50417;SDS011;36346;48.280;14.292;2024-01-15T10:58:59;16.27;;;16.09;;
50417;SDS011;36346;48.280;14.292;2024-01-15T11:01:28;16.59;;;16.48;;
50417;SDS011;36346;48.280;14.292;2024-01-15T11:03:57;17.18;;;17.06;;
50417;SDS011;36346;48.280;14.292;2024-01-15T11:06:26;16.31;;;16.11;;
50417;SDS011;36346;48.280;14.292;2024-01-15T11:08:57;16.45;;;16.12;;
50417;SDS011;36346;48.280;14.292;2024-01-15T11:11:26;16.56;;;16.32;;
50417;SDS011;36346;48.280;14.292;2024-01-15T11:13:54;15.60;;;15.42;;
50417;SDS011;36346;48.280;14.292;2024-01-15T11:16:23;15.48;;;15.33;;
50417;SDS011;36346;48.280;14.292;2024-01-15T11:21:26;15.14;;;14.91;;
50417;SDS011;36346;48.280;14.292;2024-01-15T11:23:58;14.14;;;13.86;;
50417;SDS011;36346;48.280;14.292;2024-01-15T11:26:28;14.50;;;14.37;;
50417;SDS011;36346;48.280;14.292;2024-01-15T11:31:58;16.79;;;16.64;;
50417;SDS011;36346;48.280;14.292;2024-01-15T11:40:19;17.93;;;17.74;;
50417;SDS011;36346;48.280;14.292;2024-01-15T11:42:49;15.97;;;15.86;;
50417;SDS011;36346;48.280;14.292;2024-01-15T11:45:21;12.74;;;12.60;;
50417;SDS011;36346;48.280;14.292;2024-01-15T11:48:09;10.18;;;10.00;;
50417;SDS011;36346;48.280;14.292;2024-01-15T11:50:46;8.36;;;8.33;;
50417;SDS011;36346;48.280;14.292;2024-01-15T11:55:49;7.84;;;7.80;;
50417;SDS011;36346;48.280;14.292;2024-01-15T11:58:19;7.70;;;7.66;;
50417;SDS011;36346;48.280;14.292;2024-01-15T12:00:48;8.00;;;7.88;;
50417;SDS011;36346;48.280;14.292;2024-01-15T12:03:22;8.34;;;8.21;;
50417;SDS011;36346;48.280;14.292;2024-01-15T12:05:53;8.17;;;8.04;;
50417;SDS011;36346;48.280;14.292;2024-01-15T12:08:22;8.25;;;8.20;;
50417;SDS011;36346;48.280;14.292;2024-01-15T12:10:51;8.33;;;8.28;;
50417;SDS011;36346;48.280;14.292;2024-01-15T12:13:20;8.28;;;8.26;;
50417;SDS011;36346;48.280;14.292;2024-01-15T12:15:48;10.05;;;9.97;;
50417;SDS011;36346;48.280;14.292;2024-01-15T12:18:17;8.66;;;8.55;;
50417;SDS011;36346;48.280;14.292;2024-01-15T12:20:46;7.87;;;7.79;;
50417;SDS011;36346;48.280;14.292;2024-01-15T12:23:15;8.31;;;8.20;;
50417;SDS011;36346;48.280;14.292;2024-01-15T12:25:45;7.75;;;7.66;;
50417;SDS011;36346;48.280;14.292;2024-01-15T12:28:15;7.33;;;7.29;;
50417;SDS011;36346;48.280;14.292;2024-01-15T12:30:46;7.38;;;7.30;;
50417;SDS011;36346;48.280;14.292;2024-01-15T12:33:18;7.73;;;7.66;;
50417;SDS011;36346;48.280;14.292;2024-01-15T12:35:48;7.21;;;7.13;;
50417;SDS011;36346;48.280;14.292;2024-01-15T12:38:18;7.25;;;7.16;;
50417;SDS011;36346;48.280;14.292;2024-01-15T12:40:47;6.55;;;6.49;;
50417;SDS011;36346;48.280;14.292;2024-01-15T12:43:16;7.91;;;7.85;;
50417;SDS011;36346;48.280;14.292;2024-01-15T12:45:45;6.53;;;6.41;;
50417;SDS011;36346;48.280;14.292;2024-01-15T12:48:13;6.61;;;6.49;;
50417;SDS011;36346;48.280;14.292;2024-01-15T12:50:43;6.82;;;6.75;;
50417;SDS011;36346;48.280;14.292;2024-01-15T12:53:13;6.79;;;6.73;;
50417;SDS011;36346;48.280;14.292;2024-01-15T12:55:41;6.66;;;6.57;;
50417;SDS011;36346;48.280;14.292;2024-01-15T12:58:09;7.16;;;7.08;;
50417;SDS011;36346;48.280;14.292;2024-01-15T13:00:38;6.61;;;6.54;;
50417;SDS011;36346;48.280;14.292;2024-01-15T13:03:06;6.74;;;6.69;;
50417;SDS011;36346;48.280;14.292;2024-01-15T13:05:35;6.71;;;6.68;;
50417;SDS011;36346;48.280;14.292;2024-01-15T13:08:04;6.84;;;6.76;;
50417;SDS011;36346;48.280;14.292;2024-01-15T13:10:32;6.62;;;6.56;;
50417;SDS011;36346;48.280;14.292;2024-01-15T13:13:00;7.21;;;7.12;;
50417;SDS011;36346;48.280;14.292;2024-01-15T13:15:30;6.61;;;6.56;;
50417;SDS011;36346;48.280;14.292;2024-01-15T13:17:59;7.05;;;6.99;;
50417;SDS011;36346;48.280;14.292;2024-01-15T13:20:27;7.27;;;7.20;;
50417;SDS011;36346;48.280;14.292;2024-01-15T13:22:55;7.07;;;6.99;;
50417;SDS011;36346;48.280;14.292;2024-01-15T13:25:23;7.11;;;7.05;;
50417;SDS011;36346;48.280;14.292;2024-01-15T13:27:52;6.75;;;6.66;;
50417;SDS011;36346;48.280;14.292;2024-01-15T13:30:20;6.97;;;6.87;;
50417;SDS011;36346;48.280;14.292;2024-01-15T13:32:49;6.99;;;6.89;;
50417;SDS011;36346;48.280;14.292;2024-01-15T13:35:17;6.46;;;6.38;;
50417;SDS011;36346;48.280;14.292;2024-01-15T13:37:45;6.85;;;6.78;;
50417;SDS011;36346;48.280;14.292;2024-01-15T13:40:13;7.07;;;7.00;;
50417;SDS011;36346;48.280;14.292;2024-01-15T13:42:46;6.68;;;6.65;;
50417;SDS011;36346;48.280;14.292;2024-01-15T13:45:15;6.41;;;6.37;;
50417;SDS011;36346;48.280;14.292;2024-01-15T13:47:44;5.99;;;5.99;;
50417;SDS011;36346;48.280;14.292;2024-01-15T13:50:13;5.45;;;5.44;;
50417;SDS011;36346;48.280;14.292;2024-01-15T13:52:41;6.07;;;6.03;;
50417;SDS011;36346;48.280;14.292;2024-01-15T13:55:09;6.06;;;6.01;;
50417;SDS011;36346;48.280;14.292;2024-01-15T13:57:38;5.82;;;5.77;;
50417;SDS011;36346;48.280;14.292;2024-01-15T14:00:06;5.50;;;5.45;;
50417;SDS011;36346;48.280;14.292;2024-01-15T14:02:40;5.32;;;5.26;;
50417;SDS011;36346;48.280;14.292;2024-01-15T14:05:08;5.39;;;5.34;;
50417;SDS011;36346;48.280;14.292;2024-01-15T14:07:36;5.42;;;5.40;;
50417;SDS011;36346;48.280;14.292;2024-01-15T14:10:05;5.28;;;5.25;;
50417;SDS011;36346;48.280;14.292;2024-01-15T14:12:35;5.38;;;5.35;;
50417;SDS011;36346;48.280;14.292;2024-01-15T14:15:07;5.15;;;5.13;;
50417;SDS011;36346;48.280;14.292;2024-01-15T14:17:37;4.91;;;4.88;;
50417;SDS011;36346;48.280;14.292;2024-01-15T14:20:05;4.54;;;4.51;;
50417;SDS011;36346;48.280;14.292;2024-01-15T14:22:34;4.79;;;4.77;;
50417;SDS011;36346;48.280;14.292;2024-01-15T14:25:03;4.72;;;4.71;;
50417;SDS011;36346;48.280;14.292;2024-01-15T14:27:32;4.61;;;4.58;;
50417;SDS011;36346;48.280;14.292;2024-01-15T14:30:00;4.67;;;4.62;;
50417;SDS011;36346;48.280;14.292;2024-01-15T14:32:28;4.97;;;4.94;;
50417;SDS011;36346;48.280;14.292;2024-01-15T14:34:57;4.75;;;4.74;;
50417;SDS011;36346;48.280;14.292;2024-01-15T14:37:25;5.13;;;5.09;;